• Join FlightAware (Why Join?)
  • Login
  • US Flag 
10:29PM EDT


 

Airport Tracker/Info


-or-


 

Live Flight TrackerFlight Track Log ✈ ASQ4233 ✈ 01-May-2013 ✈ KEWR - KGSO

Flight Track Log - Related Links

Times and Time Zones

All times are in EDT time to prevent confusion due to time zone crossing. See the ASQ4233 flight status page for this flight to view local times or setup timezone preferences in your user account.

Time Position Orientation Groundspeed Altitude Reporting Facility
EDT Latitude Longitude Course Direction KTS MPH feet Rate Location/Type
01:14PM 40.7167 -74.1500 252° West 178 205 1,900  Level New York TRACON
01:15PM 40.7667 -74.1000 37° Northeast 250 288 3,000 2,040 Climbing New York TRACON
01:16PM 40.5517 -74.5386 250° West  Level FlightAware Approximate
01:16PM 40.7794 -74.2406 277° West 261 300 7,300  Level New York Center
01:17PM 40.5144 -74.6736 246° West  Level FlightAware Approximate
01:17PM 40.7453 -74.3347 244° Southwest 272 313 10,300  Level New York Center
01:18PM 40.4705 -74.8052 246° West  Level FlightAware Approximate
01:18PM 40.7008 -74.4281 238° Southwest 293 337 12,400  Level New York Center
01:19PM 40.4247 -74.9347 252° West  Level FlightAware Approximate
01:19PM 40.6567 -74.5106 235° Southwest 309 356 14,000  Level New York Center
01:20PM 40.5964 -74.6331 237° Southwest 352 405 15,300 1,200 Climbing New York Center
01:21PM 40.5450 -74.7339 236° Southwest 369 425 16,500 1,320 Climbing New York Center
01:22PM 40.4703 -74.8522 230° Southwest 387 445 18,000 1,200 Climbing New York Center
01:23PM 40.3997 -74.9597 229° Southwest 393 452 18,900 1,080 Climbing New York Center
01:24PM 40.3292 -75.0644 229° Southwest 393 452 20,200 1,260 Climbing New York Center
01:25PM 40.2542 -75.1794 230° Southwest 405 466 21,500 1,200 Climbing New York Center
01:26PM 40.1769 -75.2942 229° Southwest 416 479 22,700 1,320 Climbing New York Center
01:27PM 40.0994 -75.4111 229° Southwest 422 486 24,200 1,500 Climbing New York Center
01:28PM 40.0219 -75.5225 228° Southwest 422 486 25,700 1,380 Climbing New York Center
01:29PM 39.9464 -75.6367 229° Southwest 422 486 27,000 1,080 Climbing New York Center
01:30PM 39.8750 -75.7506 231° Southwest 416 479 27,900 300 Climbing New York Center
01:32PM 39.7025 -76.0178 230° Southwest 439 505 28,000  Climbing Washington Center
01:33PM 39.6247 -76.1464 232° Southwest 454 522 28,000  Level Washington Center
01:34PM 39.5344 -76.2778 228° Southwest 474 545 28,000  Level Washington Center
01:35PM 39.4503 -76.4058 230° Southwest 479 551 28,000  Level Washington Center
01:36PM 39.3661 -76.5392 231° Southwest 479 551 28,000  Level Washington Center
01:37PM 39.2817 -76.6667 229° Southwest 479 551 28,000  Level Washington Center
01:38PM 39.2011 -76.7969 231° Southwest 473 544 28,000  Level Washington Center
01:39PM 39.1186 -76.9211 229° Southwest 473 544 28,000  Level Washington Center
01:40PM 39.0339 -77.0453 229° Southwest 467 537 28,000  Level Washington Center
01:41PM 38.9492 -77.1450 222° Southwest 467 537 28,000  Level Washington Center
01:42PM 38.8497 -77.2497 219° Southwest 462 532 28,000  Level Washington Center
01:43PM 38.7525 -77.3592 221° Southwest 472 543 28,000  Level Washington Center
01:44PM 38.6528 -77.4658 220° Southwest 472 543 28,000  Level Washington Center
01:45PM 38.5553 -77.5722 220° Southwest 467 537 28,000  Level Washington Center
01:46PM 38.4553 -77.6808 220° Southwest 467 537 28,000  Level Washington Center
01:47PM 38.3533 -77.7892 220° Southwest 467 537 28,000  Level Washington Center
01:48PM 38.2553 -77.8975 221° Southwest 467 537 28,000  Level Washington Center
01:49PM 38.1553 -78.0053 220° Southwest 467 537 28,000  Level Washington Center
01:50PM 38.0528 -78.1153 220° Southwest 467 537 28,000  Level Washington Center
01:51PM 37.9583 -78.2386 226° Southwest 455 524 28,000  Level Washington Center
01:52PM 37.8744 -78.3594 229° Southwest 460 529 28,000  Level Washington Center
01:53PM 37.7881 -78.4850 229° Southwest 474 545 28,000 -420 Level Washington Center
01:54PM 37.7039 -78.6025 228° Southwest 474 545 27,200 -900 Descending Washington Center
01:55PM 37.6281 -78.7094 228° Southwest 469 540 26,200 -960 Descending Washington Center
01:56PM 37.5436 -78.8292 228° Southwest 469 540 25,300 -1,200 Descending Washington Center
01:57PM 37.4589 -78.9458 228° Southwest 469 540 23,800 -1,560 Descending Washington Center
01:58PM 37.3742 -79.0650 228° Southwest 464 534 22,300 -960 Descending Washington Center
01:59PM 37.2914 -79.1814 228° Southwest 459 528 22,000 -180 Descending Washington Center
02:00PM 37.2086 -79.3028 229° Southwest 459 528 22,000  Level Washington Center
02:01PM 37.1167 -79.4364 229° Southwest 459 528 22,000 -300 Level Washington Center
02:02PM 37.0356 -79.5572 230° Southwest 464 534 21,400 -1,680 Descending Washington Center
02:03PM 36.9586 -79.6728 230° Southwest 459 528 18,700 -2,700 Descending Washington Center
02:05PM 36.8759 -79.7837 229° Southwest  Level FlightAware Approximate
02:12PM 36.2183 -79.9785 175° South  Level FlightAware Approximate
02:13PM 36.1121 -79.9679 175° South  Level FlightAware Approximate
02:14PM 36.1013 -79.9411 15° North  Level Estimated
02:15PM 36.1000 -79.9333 15° North  Level FlightAware Approximate
02:16PM 36.1013 -79.9411 15° North  Level Estimated
02:17PM 36.1000 -79.9333 15° North  Level FlightAware Approximate
02:18PM 36.1013 -79.9411 15° North  Level Estimated
02:19PM 36.1000 -79.9333 15° North  Level FlightAware Approximate
02:20PM 36.1013 -79.9411 15° North  Level Estimated
02:21PM 36.1000 -79.9333 15° North  Level FlightAware Approximate
02:22PM 36.1013 -79.9411 15° North  Level Estimated
02:23PM 36.1000 -79.9333 15° North  Level FlightAware Approximate
02:24PM 36.1013 -79.9411 15° North  Level Estimated